»·PEaware :: DCM2319 KRNO-KLAS

DCM2319 :: KRNO-KLAS

FLIGHT INFORMATION

Flight Status: Arrived
Operator: Unknown
More flights by this operator :: More flights under this callsign
Pilot: Joe C. (19058)
Aircraft: BOMBARDIER BD-100 CHALLENGER 300
(CL30)
More flights by this aircraft type
Origin: KRNO Reno/Tahoe Intl
United States
Destination: KLAS McCarran Intl
United States
More flights between these airports :: More routes between these airports
Route: +ZEFFR6 PESKE LIDAT J92 BTY SUNST4
File this flight plan on PilotEdge
Remarks: PBN / D1 DOF / 180927 REG / N350SB EET / KZLA0025 OPR / DCM PER / C RMK / TCAS SIMBRIEF
Altitude:
(Current/Filed)
45,000ft
Speed:
(Current/Filed)
459kts
Departed: 26-Sep-18 05:27 PM
Arrived: 26-Sep-18 06:21 PM
Distance/Time
Traveled:
299nm/0:53
Distance/Time
To Go:
Arrived

Flight Plot

Page will automatically refresh every two minutes.

Flight plan parsing failed; only flown route is shown


Map Options




Map Legend


Flown Route
Filed Route
Departure Airport
Arrival Airport
Navaid (VOR, NDB)
Fix

Horizontal Profiles

Position Reports

Time Latitude Longitude Heading Altitude Ground
Speed
26-Sep-18 17:11 39.501693 -119.764471 270 4406ft 0kts
26-Sep-18 17:12 39.501693 -119.764471 270 4406ft 0kts
26-Sep-18 17:13 39.501693 -119.764471 270 4406ft 0kts
26-Sep-18 17:14 39.501693 -119.764471 270 4406ft 0kts
26-Sep-18 17:15 39.501693 -119.764471 270 4406ft 0kts
26-Sep-18 17:16 39.501693 -119.764471 270 4406ft 0kts
26-Sep-18 17:17 39.501693 -119.764471 270 4406ft 0kts
26-Sep-18 17:18 39.501693 -119.764471 270 4406ft 0kts
26-Sep-18 17:19 39.501693 -119.764471 270 4406ft 0kts
26-Sep-18 17:20 39.501693 -119.764471 270 4406ft 0kts
26-Sep-18 17:21 39.501693 -119.764471 270 4406ft 0kts
26-Sep-18 17:22 39.501693 -119.764471 270 4406ft 0kts
26-Sep-18 17:23 39.502275 -119.765788 0 4406ft 12kts
26-Sep-18 17:24 39.507966 -119.765770 0 4409ft 25kts
26-Sep-18 17:25 39.513222 -119.765143 357 4416ft 17kts
26-Sep-18 17:26 39.513690 -119.765502 282 4417ft 0kts
26-Sep-18 17:27 39.513690 -119.765502 282 4417ft 0kts
26-Sep-18 17:28 39.513690 -119.765502 282 4417ft 0kts
26-Sep-18 17:29 39.507989 -119.766762 178 4410ft 114kts
26-Sep-18 17:30 39.454813 -119.768161 181 6423ft 247kts
26-Sep-18 17:31 39.374572 -119.769317 181 10289ft 306kts
26-Sep-18 17:32 39.299066 -119.730218 136 15562ft 329kts
26-Sep-18 17:33 39.233810 -119.642654 134 19257ft 367kts
26-Sep-18 17:34 39.162650 -119.542418 133 22728ft 390kts
26-Sep-18 17:35 39.083723 -119.443423 136 25769ft 407kts
26-Sep-18 17:36 39.001029 -119.340842 137 28494ft 418kts
26-Sep-18 17:37 38.917004 -119.237127 136 31082ft 422kts
26-Sep-18 17:38 38.830685 -119.130727 136 32873ft 438kts
26-Sep-18 17:39 38.744653 -119.020890 133 35359ft 430kts
26-Sep-18 17:40 38.664444 -118.911877 132 37602ft 426kts
26-Sep-18 17:41 38.582957 -118.801269 132 39091ft 437kts
26-Sep-18 17:42 38.499469 -118.688457 132 40907ft 438kts
26-Sep-18 17:43 38.416022 -118.576085 132 42589ft 438kts
26-Sep-18 17:44 38.332552 -118.464079 132 44153ft 437kts
26-Sep-18 17:45 38.248602 -118.351825 132 45212ft 447kts
26-Sep-18 17:46 38.163510 -118.238462 133 45216ft 463kts
26-Sep-18 17:47 38.072233 -118.117311 133 45216ft 488kts
26-Sep-18 17:48 37.978616 -117.993538 133 45189ft 486kts
26-Sep-18 17:49 37.885306 -117.870653 133 45154ft 485kts
26-Sep-18 17:50 37.791870 -117.748083 133 45191ft 483kts
26-Sep-18 17:51 37.723990 -117.659336 133 45235ft 481kts
26-Sep-18 17:52 37.631381 -117.538660 133 45274ft 479kts
26-Sep-18 17:53 37.538903 -117.418610 133 45264ft 479kts
26-Sep-18 17:54 37.446105 -117.298978 136 45271ft 479kts
26-Sep-18 17:55 37.337970 -117.200560 145 44373ft 487kts
26-Sep-18 17:56 37.228907 -117.107458 145 42363ft 466kts
26-Sep-18 17:57 37.122604 -117.017620 145 39765ft 460kts
26-Sep-18 17:58 37.017740 -116.929368 145 36994ft 453kts
26-Sep-18 17:59 36.914983 -116.843209 145 34216ft 440kts
26-Sep-18 18:00 36.814884 -116.758524 138 31414ft 439kts
26-Sep-18 18:01 36.731940 -116.647785 130 28621ft 432kts
26-Sep-18 18:02 36.654711 -116.539215 129 25815ft 409kts
26-Sep-18 18:03 36.582509 -116.437078 129 23992ft 366kts
26-Sep-18 18:04 36.516151 -116.343237 130 22191ft 364kts
26-Sep-18 18:05 36.450044 -116.249977 130 20584ft 355kts
26-Sep-18 18:06 36.385827 -116.159615 130 18983ft 344kts
26-Sep-18 18:07 36.323583 -116.072258 130 17383ft 333kts
26-Sep-18 18:08 36.263649 -115.988363 130 16092ft 310kts
26-Sep-18 18:09 36.206184 -115.905827 117 16082ft 340kts
26-Sep-18 18:10 36.169865 -115.801169 111 16086ft 309kts
26-Sep-18 18:11 36.139329 -115.708407 110 15810ft 284kts
26-Sep-18 18:12 36.108483 -115.613606 110 14036ft 308kts
26-Sep-18 18:13 36.076931 -115.516410 110 12234ft 299kts
26-Sep-18 18:14 36.047468 -115.425664 108 10994ft 258kts
26-Sep-18 18:15 36.042834 -115.334735 91 9351ft 272kts
26-Sep-18 18:16 36.040278 -115.248480 91 9138ft 259kts
26-Sep-18 18:17 36.037613 -115.153341 91 9025ft 288kts
26-Sep-18 18:18 36.036825 -115.058703 69 7435ft 264kts
26-Sep-18 18:19 36.098977 -115.027275 359 5864ft 259kts
26-Sep-18 18:20 36.140727 -115.070680 251 4312ft 190kts
26-Sep-18 18:21 36.125410 -115.127982 245 3795ft 169kts
26-Sep-18 18:22 36.093848 -115.159782 205 2109ft 129kts
26-Sep-18 18:23 36.083995 -115.166299 233 2153ft 0kts
26-Sep-18 18:24 36.082239 -115.168352 320 2164ft 11kts
26-Sep-18 18:25 36.090129 -115.164291 24 2133ft 45kts
26-Sep-18 18:26 36.098405 -115.160397 331 2101ft 11kts

Navigation Log

Ident Type
Flight plan parsing failed, navigation log unavailable